sensor_id;sensor_type;location;lat;lon;timestamp;temperature;humidity
60473;DHT22;46318;52.716;6.444;2024-01-07T00:00:22;0.00;100.00
60473;DHT22;46318;52.716;6.444;2024-01-07T00:02:48;0.00;100.00
60473;DHT22;46318;52.716;6.444;2024-01-07T00:05:14;0.00;100.00
60473;DHT22;46318;52.716;6.444;2024-01-07T00:07:43;0.00;100.00
60473;DHT22;46318;52.716;6.444;2024-01-07T00:10:10;0.00;100.00
60473;DHT22;46318;52.716;6.444;2024-01-07T00:12:36;0.00;100.00
60473;DHT22;46318;52.716;6.444;2024-01-07T00:15:01;0.00;100.00
60473;DHT22;46318;52.716;6.444;2024-01-07T00:17:27;0.00;100.00
60473;DHT22;46318;52.716;6.444;2024-01-07T00:19:54;0.00;100.00
60473;DHT22;46318;52.716;6.444;2024-01-07T00:22:22;0.00;100.00
60473;DHT22;46318;52.716;6.444;2024-01-07T00:24:48;0.00;100.00
60473;DHT22;46318;52.716;6.444;2024-01-07T00:27:14;0.00;100.00
60473;DHT22;46318;52.716;6.444;2024-01-07T00:29:40;0.00;100.00
60473;DHT22;46318;52.716;6.444;2024-01-07T00:32:05;0.00;100.00
60473;DHT22;46318;52.716;6.444;2024-01-07T00:34:31;0.00;100.00
60473;DHT22;46318;52.716;6.444;2024-01-07T00:36:57;0.00;100.00
60473;DHT22;46318;52.716;6.444;2024-01-07T00:39:23;0.00;100.00
60473;DHT22;46318;52.716;6.444;2024-01-07T00:41:48;0.00;100.00
60473;DHT22;46318;52.716;6.444;2024-01-07T00:44:14;0.00;100.00
60473;DHT22;46318;52.716;6.444;2024-01-07T00:46:40;0.00;100.00
60473;DHT22;46318;52.716;6.444;2024-01-07T00:49:07;0.00;100.00
60473;DHT22;46318;52.716;6.444;2024-01-07T00:51:33;0.00;100.00
60473;DHT22;46318;52.716;6.444;2024-01-07T00:53:58;0.00;100.00
60473;DHT22;46318;52.716;6.444;2024-01-07T00:56:28;0.00;100.00
60473;DHT22;46318;52.716;6.444;2024-01-07T00:58:53;0.00;100.00
60473;DHT22;46318;52.716;6.444;2024-01-07T01:01:19;0.00;100.00
60473;DHT22;46318;52.716;6.444;2024-01-07T01:03:45;0.00;100.00
60473;DHT22;46318;52.716;6.444;2024-01-07T01:06:11;0.00;100.00
60473;DHT22;46318;52.716;6.444;2024-01-07T01:08:37;0.00;100.00
60473;DHT22;46318;52.716;6.444;2024-01-07T01:11:03;0.00;100.00
60473;DHT22;46318;52.716;6.444;2024-01-07T01:13:29;0.00;100.00
60473;DHT22;46318;52.716;6.444;2024-01-07T01:15:55;0.00;100.00
60473;DHT22;46318;52.716;6.444;2024-01-07T01:18:21;0.00;100.00
60473;DHT22;46318;52.716;6.444;2024-01-07T01:20:46;0.00;100.00
60473;DHT22;46318;52.716;6.444;2024-01-07T01:23:15;0.00;100.00
60473;DHT22;46318;52.716;6.444;2024-01-07T01:25:40;0.00;100.00
60473;DHT22;46318;52.716;6.444;2024-01-07T01:28:06;0.00;100.00
60473;DHT22;46318;52.716;6.444;2024-01-07T01:30:32;0.00;100.00
60473;DHT22;46318;52.716;6.444;2024-01-07T01:32:58;0.00;100.00
60473;DHT22;46318;52.716;6.444;2024-01-07T01:35:24;0.00;100.00
60473;DHT22;46318;52.716;6.444;2024-01-07T01:37:50;0.00;100.00
60473;DHT22;46318;52.716;6.444;2024-01-07T01:40:19;0.00;100.00
60473;DHT22;46318;52.716;6.444;2024-01-07T01:42:44;0.00;100.00
60473;DHT22;46318;52.716;6.444;2024-01-07T01:45:11;0.00;100.00
60473;DHT22;46318;52.716;6.444;2024-01-07T01:47:39;0.00;100.00
60473;DHT22;46318;52.716;6.444;2024-01-07T01:50:08;0.00;100.00
60473;DHT22;46318;52.716;6.444;2024-01-07T01:52:34;0.00;100.00
60473;DHT22;46318;52.716;6.444;2024-01-07T01:55:01;0.00;100.00
60473;DHT22;46318;52.716;6.444;2024-01-07T01:57:32;0.00;100.00
60473;DHT22;46318;52.716;6.444;2024-01-07T02:00:03;0.00;100.00
60473;DHT22;46318;52.716;6.444;2024-01-07T02:02:33;0.00;100.00
60473;DHT22;46318;52.716;6.444;2024-01-07T02:05:01;0.00;100.00
60473;DHT22;46318;52.716;6.444;2024-01-07T02:07:28;0.00;100.00
60473;DHT22;46318;52.716;6.444;2024-01-07T02:09:55;0.00;100.00
60473;DHT22;46318;52.716;6.444;2024-01-07T02:12:21;0.00;100.00
60473;DHT22;46318;52.716;6.444;2024-01-07T02:14:47;0.00;100.00
60473;DHT22;46318;52.716;6.444;2024-01-07T02:17:13;0.00;100.00
60473;DHT22;46318;52.716;6.444;2024-01-07T02:19:39;0.00;100.00
60473;DHT22;46318;52.716;6.444;2024-01-07T02:22:05;0.00;100.00
60473;DHT22;46318;52.716;6.444;2024-01-07T02:24:31;0.00;100.00
60473;DHT22;46318;52.716;6.444;2024-01-07T02:26:58;0.00;100.00
60473;DHT22;46318;52.716;6.444;2024-01-07T02:29:28;0.00;100.00
60473;DHT22;46318;52.716;6.444;2024-01-07T02:31:57;0.00;100.00
60473;DHT22;46318;52.716;6.444;2024-01-07T02:34:23;0.00;100.00
60473;DHT22;46318;52.716;6.444;2024-01-07T02:36:48;0.00;100.00
60473;DHT22;46318;52.716;6.444;2024-01-07T02:39:14;0.00;100.00
60473;DHT22;46318;52.716;6.444;2024-01-07T02:41:40;0.00;100.00
60473;DHT22;46318;52.716;6.444;2024-01-07T02:44:06;0.00;100.00
60473;DHT22;46318;52.716;6.444;2024-01-07T02:46:32;0.00;100.00
60473;DHT22;46318;52.716;6.444;2024-01-07T02:48:57;0.00;100.00
60473;DHT22;46318;52.716;6.444;2024-01-07T02:51:23;0.00;100.00
60473;DHT22;46318;52.716;6.444;2024-01-07T02:53:49;-0.10;100.00
60473;DHT22;46318;52.716;6.444;2024-01-07T02:56:15;0.00;100.00
60473;DHT22;46318;52.716;6.444;2024-01-07T02:58:50;0.00;100.00
60473;DHT22;46318;52.716;6.444;2024-01-07T03:01:24;0.00;100.00
60473;DHT22;46318;52.716;6.444;2024-01-07T03:03:50;0.00;100.00
60473;DHT22;46318;52.716;6.444;2024-01-07T03:06:22;0.00;100.00
60473;DHT22;46318;52.716;6.444;2024-01-07T03:08:52;0.00;100.00
60473;DHT22;46318;52.716;6.444;2024-01-07T03:11:17;-0.10;100.00
60473;DHT22;46318;52.716;6.444;2024-01-07T03:13:43;0.00;100.00
60473;DHT22;46318;52.716;6.444;2024-01-07T03:16:19;0.00;100.00
60473;DHT22;46318;52.716;6.444;2024-01-07T03:18:46;0.00;100.00
60473;DHT22;46318;52.716;6.444;2024-01-07T03:21:22;0.00;100.00
60473;DHT22;46318;52.716;6.444;2024-01-07T03:23:49;0.00;100.00
60473;DHT22;46318;52.716;6.444;2024-01-07T03:26:17;-0.10;100.00
60473;DHT22;46318;52.716;6.444;2024-01-07T03:28:44;0.00;100.00
60473;DHT22;46318;52.716;6.444;2024-01-07T03:31:12;-0.10;100.00
60473;DHT22;46318;52.716;6.444;2024-01-07T03:33:41;0.00;100.00
60473;DHT22;46318;52.716;6.444;2024-01-07T03:36:08;-0.10;100.00
60473;DHT22;46318;52.716;6.444;2024-01-07T03:38:35;-0.10;100.00
60473;DHT22;46318;52.716;6.444;2024-01-07T03:41:02;-0.10;100.00
60473;DHT22;46318;52.716;6.444;2024-01-07T03:43:28;-0.10;100.00
60473;DHT22;46318;52.716;6.444;2024-01-07T03:45:54;-0.10;100.00
60473;DHT22;46318;52.716;6.444;2024-01-07T03:48:20;-0.10;100.00
60473;DHT22;46318;52.716;6.444;2024-01-07T03:50:45;-0.10;100.00
60473;DHT22;46318;52.716;6.444;2024-01-07T03:53:11;-0.10;100.00
60473;DHT22;46318;52.716;6.444;2024-01-07T03:55:38;-0.10;100.00
60473;DHT22;46318;52.716;6.444;2024-01-07T03:58:04;-0.10;100.00
60473;DHT22;46318;52.716;6.444;2024-01-07T04:00:34;-0.10;100.00
60473;DHT22;46318;52.716;6.444;2024-01-07T04:03:01;-0.10;100.00
60473;DHT22;46318;52.716;6.444;2024-01-07T04:05:27;-0.10;100.00
60473;DHT22;46318;52.716;6.444;2024-01-07T04:07:54;-0.10;100.00
60473;DHT22;46318;52.716;6.444;2024-01-07T04:10:20;-0.10;100.00
60473;DHT22;46318;52.716;6.444;2024-01-07T04:12:46;-0.10;100.00
60473;DHT22;46318;52.716;6.444;2024-01-07T04:15:12;-0.10;100.00
60473;DHT22;46318;52.716;6.444;2024-01-07T04:17:38;-0.10;100.00
60473;DHT22;46318;52.716;6.444;2024-01-07T04:20:05;-0.20;100.00
60473;DHT22;46318;52.716;6.444;2024-01-07T04:22:32;-0.10;100.00
60473;DHT22;46318;52.716;6.444;2024-01-07T04:24:57;-0.10;100.00
60473;DHT22;46318;52.716;6.444;2024-01-07T04:27:23;-0.10;100.00
60473;DHT22;46318;52.716;6.444;2024-01-07T04:29:50;-0.10;100.00
60473;DHT22;46318;52.716;6.444;2024-01-07T04:32:17;-0.10;100.00
60473;DHT22;46318;52.716;6.444;2024-01-07T04:34:43;-0.20;100.00
60473;DHT22;46318;52.716;6.444;2024-01-07T04:37:08;-0.10;100.00
60473;DHT22;46318;52.716;6.444;2024-01-07T04:39:34;-0.10;100.00
60473;DHT22;46318;52.716;6.444;2024-01-07T04:42:00;-0.20;100.00
60473;DHT22;46318;52.716;6.444;2024-01-07T04:44:26;-0.20;100.00
60473;DHT22;46318;52.716;6.444;2024-01-07T04:46:51;-0.20;100.00
60473;DHT22;46318;52.716;6.444;2024-01-07T04:49:17;-0.20;100.00
60473;DHT22;46318;52.716;6.444;2024-01-07T04:51:43;-0.20;100.00
60473;DHT22;46318;52.716;6.444;2024-01-07T04:54:08;-0.20;100.00
60473;DHT22;46318;52.716;6.444;2024-01-07T04:56:34;-0.20;100.00
60473;DHT22;46318;52.716;6.444;2024-01-07T04:59:00;-0.20;100.00
60473;DHT22;46318;52.716;6.444;2024-01-07T05:01:26;-0.20;100.00
60473;DHT22;46318;52.716;6.444;2024-01-07T05:03:53;-0.20;100.00
60473;DHT22;46318;52.716;6.444;2024-01-07T05:06:19;-0.30;100.00
60473;DHT22;46318;52.716;6.444;2024-01-07T05:08:45;-0.30;100.00
60473;DHT22;46318;52.716;6.444;2024-01-07T05:11:10;-0.30;100.00
60473;DHT22;46318;52.716;6.444;2024-01-07T05:13:37;-0.30;100.00
60473;DHT22;46318;52.716;6.444;2024-01-07T05:16:03;-0.30;100.00
60473;DHT22;46318;52.716;6.444;2024-01-07T05:18:29;-0.30;100.00
60473;DHT22;46318;52.716;6.444;2024-01-07T05:20:54;-0.30;100.00
60473;DHT22;46318;52.716;6.444;2024-01-07T05:23:21;-0.30;100.00
60473;DHT22;46318;52.716;6.444;2024-01-07T05:25:47;-0.30;100.00
60473;DHT22;46318;52.716;6.444;2024-01-07T05:28:14;-0.30;100.00
60473;DHT22;46318;52.716;6.444;2024-01-07T05:30:41;-0.30;100.00
60473;DHT22;46318;52.716;6.444;2024-01-07T05:33:10;-0.30;100.00
60473;DHT22;46318;52.716;6.444;2024-01-07T05:35:36;-0.30;100.00
60473;DHT22;46318;52.716;6.444;2024-01-07T05:38:01;-0.30;100.00
60473;DHT22;46318;52.716;6.444;2024-01-07T05:40:27;-0.40;100.00
60473;DHT22;46318;52.716;6.444;2024-01-07T05:42:53;-0.30;100.00
60473;DHT22;46318;52.716;6.444;2024-01-07T05:45:19;-0.40;99.90
60473;DHT22;46318;52.716;6.444;2024-01-07T05:47:45;-0.40;99.50
60473;DHT22;46318;52.716;6.444;2024-01-07T05:50:11;-0.40;99.60
60473;DHT22;46318;52.716;6.444;2024-01-07T05:52:40;-0.40;99.70
60473;DHT22;46318;52.716;6.444;2024-01-07T05:55:06;-0.40;99.20
60473;DHT22;46318;52.716;6.444;2024-01-07T05:57:32;-0.40;98.80
60473;DHT22;46318;52.716;6.444;2024-01-07T05:59:58;-0.40;98.80
60473;DHT22;46318;52.716;6.444;2024-01-07T06:02:27;-0.40;99.00
60473;DHT22;46318;52.716;6.444;2024-01-07T06:04:52;-0.40;98.60
60473;DHT22;46318;52.716;6.444;2024-01-07T06:07:18;-0.40;98.50
60473;DHT22;46318;52.716;6.444;2024-01-07T06:09:44;-0.40;98.50
60473;DHT22;46318;52.716;6.444;2024-01-07T06:12:10;-0.40;98.00
60473;DHT22;46318;52.716;6.444;2024-01-07T06:14:36;-0.40;97.60
60473;DHT22;46318;52.716;6.444;2024-01-07T06:17:01;-0.40;97.50
60473;DHT22;46318;52.716;6.444;2024-01-07T06:19:27;-0.40;97.20
60473;DHT22;46318;52.716;6.444;2024-01-07T06:21:53;-0.40;97.60
60473;DHT22;46318;52.716;6.444;2024-01-07T06:24:19;-0.40;97.30
60473;DHT22;46318;52.716;6.444;2024-01-07T06:26:45;-0.40;96.70
60473;DHT22;46318;52.716;6.444;2024-01-07T06:29:10;-0.40;97.00
60473;DHT22;46318;52.716;6.444;2024-01-07T06:31:42;-0.40;96.60
60473;DHT22;46318;52.716;6.444;2024-01-07T06:34:09;-0.40;96.30
60473;DHT22;46318;52.716;6.444;2024-01-07T06:36:39;-0.40;96.60
60473;DHT22;46318;52.716;6.444;2024-01-07T06:39:07;-0.40;96.60
60473;DHT22;46318;52.716;6.444;2024-01-07T06:41:34;-0.40;95.80
60473;DHT22;46318;52.716;6.444;2024-01-07T06:44:00;-0.40;96.20
60473;DHT22;46318;52.716;6.444;2024-01-07T06:46:27;-0.40;96.40
60473;DHT22;46318;52.716;6.444;2024-01-07T06:48:52;-0.40;97.00
60473;DHT22;46318;52.716;6.444;2024-01-07T06:51:18;-0.40;96.80
60473;DHT22;46318;52.716;6.444;2024-01-07T06:53:50;-0.40;97.00
60473;DHT22;46318;52.716;6.444;2024-01-07T06:56:16;-0.40;96.80
60473;DHT22;46318;52.716;6.444;2024-01-07T06:58:43;-0.40;96.70
60473;DHT22;46318;52.716;6.444;2024-01-07T07:01:09;-0.40;96.50
60473;DHT22;46318;52.716;6.444;2024-01-07T07:03:35;-0.40;96.00
60473;DHT22;46318;52.716;6.444;2024-01-07T07:06:04;-0.40;95.40
60473;DHT22;46318;52.716;6.444;2024-01-07T07:08:30;-0.40;95.30
60473;DHT22;46318;52.716;6.444;2024-01-07T07:11:00;-0.40;95.70
60473;DHT22;46318;52.716;6.444;2024-01-07T07:13:26;-0.40;95.50
60473;DHT22;46318;52.716;6.444;2024-01-07T07:15:52;-0.40;94.50
60473;DHT22;46318;52.716;6.444;2024-01-07T07:18:17;-0.40;94.50
60473;DHT22;46318;52.716;6.444;2024-01-07T07:20:46;-0.40;94.90
60473;DHT22;46318;52.716;6.444;2024-01-07T07:23:12;-0.40;95.30
60473;DHT22;46318;52.716;6.444;2024-01-07T07:25:38;-0.40;95.30
60473;DHT22;46318;52.716;6.444;2024-01-07T07:28:06;-0.40;95.20
60473;DHT22;46318;52.716;6.444;2024-01-07T07:30:32;-0.40;95.20
60473;DHT22;46318;52.716;6.444;2024-01-07T07:32:57;-0.40;94.50
60473;DHT22;46318;52.716;6.444;2024-01-07T07:35:23;-0.40;94.00
60473;DHT22;46318;52.716;6.444;2024-01-07T07:37:49;-0.40;94.50
60473;DHT22;46318;52.716;6.444;2024-01-07T07:40:15;-0.40;94.10
60473;DHT22;46318;52.716;6.444;2024-01-07T07:42:44;-0.40;93.90
60473;DHT22;46318;52.716;6.444;2024-01-07T07:45:12;-0.40;93.60
60473;DHT22;46318;52.716;6.444;2024-01-07T07:47:38;-0.40;92.60
60473;DHT22;46318;52.716;6.444;2024-01-07T07:50:07;-0.40;93.00
60473;DHT22;46318;52.716;6.444;2024-01-07T07:52:33;-0.40;93.10
60473;DHT22;46318;52.716;6.444;2024-01-07T08:10:52;-0.40;92.10
60473;DHT22;46318;52.716;6.444;2024-01-07T08:13:20;-0.40;91.20
60473;DHT22;46318;52.716;6.444;2024-01-07T08:15:46;-0.40;91.80
60473;DHT22;46318;52.716;6.444;2024-01-07T08:18:13;-0.40;91.90
60473;DHT22;46318;52.716;6.444;2024-01-07T08:20:39;-0.40;92.50
60473;DHT22;46318;52.716;6.444;2024-01-07T08:23:05;-0.40;92.30
60473;DHT22;46318;52.716;6.444;2024-01-07T08:25:31;-0.40;92.40
60473;DHT22;46318;52.716;6.444;2024-01-07T08:27:57;-0.40;91.90
60473;DHT22;46318;52.716;6.444;2024-01-07T08:30:23;-0.40;92.40
60473;DHT22;46318;52.716;6.444;2024-01-07T08:32:52;-0.40;91.90
60473;DHT22;46318;52.716;6.444;2024-01-07T08:35:18;-0.40;91.60
60473;DHT22;46318;52.716;6.444;2024-01-07T08:37:44;-0.40;92.20
60473;DHT22;46318;52.716;6.444;2024-01-07T08:40:11;-0.40;91.60
60473;DHT22;46318;52.716;6.444;2024-01-07T08:42:38;-0.40;91.00
60473;DHT22;46318;52.716;6.444;2024-01-07T08:45:05;-0.40;90.70
60473;DHT22;46318;52.716;6.444;2024-01-07T08:47:31;-0.40;90.60
60473;DHT22;46318;52.716;6.444;2024-01-07T08:49:57;-0.40;91.00
60473;DHT22;46318;52.716;6.444;2024-01-07T08:52:24;-0.50;90.70
60473;DHT22;46318;52.716;6.444;2024-01-07T08:54:52;-0.40;90.20
60473;DHT22;46318;52.716;6.444;2024-01-07T08:57:18;-0.50;90.50
60473;DHT22;46318;52.716;6.444;2024-01-07T08:59:44;-0.50;91.00
60473;DHT22;46318;52.716;6.444;2024-01-07T09:02:09;-0.50;91.20
60473;DHT22;46318;52.716;6.444;2024-01-07T09:04:35;-0.50;90.80
60473;DHT22;46318;52.716;6.444;2024-01-07T09:07:01;-0.50;90.60
60473;DHT22;46318;52.716;6.444;2024-01-07T09:09:27;-0.50;90.60
60473;DHT22;46318;52.716;6.444;2024-01-07T09:11:53;-0.50;90.60
60473;DHT22;46318;52.716;6.444;2024-01-07T09:14:22;-0.50;90.50
60473;DHT22;46318;52.716;6.444;2024-01-07T09:16:48;-0.50;89.80
60473;DHT22;46318;52.716;6.444;2024-01-07T09:19:13;-0.50;90.30
60473;DHT22;46318;52.716;6.444;2024-01-07T09:21:39;-0.50;89.90
60473;DHT22;46318;52.716;6.444;2024-01-07T09:24:05;-0.50;90.40
60473;DHT22;46318;52.716;6.444;2024-01-07T09:26:31;-0.40;90.90
60473;DHT22;46318;52.716;6.444;2024-01-07T09:28:57;-0.30;90.90
60473;DHT22;46318;52.716;6.444;2024-01-07T09:31:23;-0.30;90.80
60473;DHT22;46318;52.716;6.444;2024-01-07T09:33:48;-0.20;90.30
60473;DHT22;46318;52.716;6.444;2024-01-07T09:36:14;-0.20;90.40
60473;DHT22;46318;52.716;6.444;2024-01-07T09:38:41;-0.10;90.80
60473;DHT22;46318;52.716;6.444;2024-01-07T09:41:07;-0.10;90.30
60473;DHT22;46318;52.716;6.444;2024-01-07T09:43:33;0.00;90.60
60473;DHT22;46318;52.716;6.444;2024-01-07T09:45:59;0.00;90.40
60473;DHT22;46318;52.716;6.444;2024-01-07T09:48:25;0.00;89.50
60473;DHT22;46318;52.716;6.444;2024-01-07T09:50:52;0.00;90.10
60473;DHT22;46318;52.716;6.444;2024-01-07T09:53:20;0.00;90.20
60473;DHT22;46318;52.716;6.444;2024-01-07T09:56:17;0.00;89.90
60473;DHT22;46318;52.716;6.444;2024-01-07T09:58:53;0.10;89.00
60473;DHT22;46318;52.716;6.444;2024-01-07T10:01:19;0.10;89.30
60473;DHT22;46318;52.716;6.444;2024-01-07T10:03:46;0.10;88.90
60473;DHT22;46318;52.716;6.444;2024-01-07T10:06:12;0.10;88.60
60473;DHT22;46318;52.716;6.444;2024-01-07T10:08:39;0.10;88.30
60473;DHT22;46318;52.716;6.444;2024-01-07T10:11:05;0.20;87.80
60473;DHT22;46318;52.716;6.444;2024-01-07T10:13:31;0.30;87.60
60473;DHT22;46318;52.716;6.444;2024-01-07T10:15:57;0.30;87.50
60473;DHT22;46318;52.716;6.444;2024-01-07T10:18:25;0.40;87.00
60473;DHT22;46318;52.716;6.444;2024-01-07T10:20:51;0.40;86.10
60473;DHT22;46318;52.716;6.444;2024-01-07T10:23:20;0.40;86.10
60473;DHT22;46318;52.716;6.444;2024-01-07T10:25:46;0.40;86.00
60473;DHT22;46318;52.716;6.444;2024-01-07T10:28:12;0.50;87.20
60473;DHT22;46318;52.716;6.444;2024-01-07T10:30:50;0.50;86.40
60473;DHT22;46318;52.716;6.444;2024-01-07T10:33:21;0.60;86.90
60473;DHT22;46318;52.716;6.444;2024-01-07T10:36:01;0.60;86.70
60473;DHT22;46318;52.716;6.444;2024-01-07T10:38:32;0.50;86.60
60473;DHT22;46318;52.716;6.444;2024-01-07T10:41:01;0.40;85.50
60473;DHT22;46318;52.716;6.444;2024-01-07T10:43:30;0.40;86.00
60473;DHT22;46318;52.716;6.444;2024-01-07T10:45:59;0.40;86.60
60473;DHT22;46318;52.716;6.444;2024-01-07T10:48:30;0.40;85.90
60473;DHT22;46318;52.716;6.444;2024-01-07T10:51:00;0.40;86.10
60473;DHT22;46318;52.716;6.444;2024-01-07T10:53:28;0.40;85.60
60473;DHT22;46318;52.716;6.444;2024-01-07T10:56:02;0.30;85.50
60473;DHT22;46318;52.716;6.444;2024-01-07T10:58:39;0.30;84.80
60473;DHT22;46318;52.716;6.444;2024-01-07T11:01:06;0.30;84.40
60473;DHT22;46318;52.716;6.444;2024-01-07T11:06:51;0.30;84.30
60473;DHT22;46318;52.716;6.444;2024-01-07T11:09:33;0.20;84.10
60473;DHT22;46318;52.716;6.444;2024-01-07T11:12:02;0.20;84.10
60473;DHT22;46318;52.716;6.444;2024-01-07T11:14:44;0.20;84.30
60473;DHT22;46318;52.716;6.444;2024-01-07T11:20:23;0.20;85.00
60473;DHT22;46318;52.716;6.444;2024-01-07T11:22:52;0.20;84.50
60473;DHT22;46318;52.716;6.444;2024-01-07T11:25:33;0.20;85.20
60473;DHT22;46318;52.716;6.444;2024-01-07T11:28:05;0.20;85.00
60473;DHT22;46318;52.716;6.444;2024-01-07T11:30:38;0.20;84.70
60473;DHT22;46318;52.716;6.444;2024-01-07T11:33:06;0.20;84.20
60473;DHT22;46318;52.716;6.444;2024-01-07T11:36:06;0.20;84.70
60473;DHT22;46318;52.716;6.444;2024-01-07T11:38:34;0.20;85.10
60473;DHT22;46318;52.716;6.444;2024-01-07T11:41:05;0.20;85.30
60473;DHT22;46318;52.716;6.444;2024-01-07T11:43:32;0.20;84.90
60473;DHT22;46318;52.716;6.444;2024-01-07T11:46:07;0.20;85.50
60473;DHT22;46318;52.716;6.444;2024-01-07T11:48:33;0.20;84.50
60473;DHT22;46318;52.716;6.444;2024-01-07T11:51:04;0.20;84.40
60473;DHT22;46318;52.716;6.444;2024-01-07T11:53:30;0.20;84.50
60473;DHT22;46318;52.716;6.444;2024-01-07T11:55:57;0.20;84.00
60473;DHT22;46318;52.716;6.444;2024-01-07T11:58:22;0.20;85.50
60473;DHT22;46318;52.716;6.444;2024-01-07T12:00:48;0.20;86.00
60473;DHT22;46318;52.716;6.444;2024-01-07T12:03:18;0.20;85.80
60473;DHT22;46318;52.716;6.444;2024-01-07T12:05:44;0.20;85.90
60473;DHT22;46318;52.716;6.444;2024-01-07T12:08:11;0.20;85.50
60473;DHT22;46318;52.716;6.444;2024-01-07T12:10:37;0.20;85.50
60473;DHT22;46318;52.716;6.444;2024-01-07T12:13:03;0.30;85.80
60473;DHT22;46318;52.716;6.444;2024-01-07T12:15:30;0.30;85.90
60473;DHT22;46318;52.716;6.444;2024-01-07T12:17:57;0.30;85.30
60473;DHT22;46318;52.716;6.444;2024-01-07T12:20:24;0.20;84.80
60473;DHT22;46318;52.716;6.444;2024-01-07T12:22:51;0.20;85.00
60473;DHT22;46318;52.716;6.444;2024-01-07T12:25:21;0.30;85.00
60473;DHT22;46318;52.716;6.444;2024-01-07T12:27:51;0.30;85.20
60473;DHT22;46318;52.716;6.444;2024-01-07T12:30:20;0.20;85.50
60473;DHT22;46318;52.716;6.444;2024-01-07T12:32:47;0.20;85.50
60473;DHT22;46318;52.716;6.444;2024-01-07T12:35:18;0.20;85.20
60473;DHT22;46318;52.716;6.444;2024-01-07T12:37:44;0.20;85.40
60473;DHT22;46318;52.716;6.444;2024-01-07T12:40:11;0.20;85.30
60473;DHT22;46318;52.716;6.444;2024-01-07T12:42:38;0.20;85.90
60473;DHT22;46318;52.716;6.444;2024-01-07T12:45:12;0.20;85.80
60473;DHT22;46318;52.716;6.444;2024-01-07T12:47:41;0.20;86.30
60473;DHT22;46318;52.716;6.444;2024-01-07T12:50:11;0.20;86.10
60473;DHT22;46318;52.716;6.444;2024-01-07T12:52:37;0.20;86.20
60473;DHT22;46318;52.716;6.444;2024-01-07T12:55:05;0.20;85.80
60473;DHT22;46318;52.716;6.444;2024-01-07T12:57:31;0.30;85.70
60473;DHT22;46318;52.716;6.444;2024-01-07T12:59:58;0.30;86.30
60473;DHT22;46318;52.716;6.444;2024-01-07T13:02:23;0.30;86.60
60473;DHT22;46318;52.716;6.444;2024-01-07T13:04:50;0.30;86.50
60473;DHT22;46318;52.716;6.444;2024-01-07T13:07:16;0.30;86.30
60473;DHT22;46318;52.716;6.444;2024-01-07T13:09:45;0.30;85.90
60473;DHT22;46318;52.716;6.444;2024-01-07T13:12:11;0.30;85.40
60473;DHT22;46318;52.716;6.444;2024-01-07T13:14:38;0.30;86.10
60473;DHT22;46318;52.716;6.444;2024-01-07T13:17:04;0.30;86.00
60473;DHT22;46318;52.716;6.444;2024-01-07T13:19:30;0.30;85.40
60473;DHT22;46318;52.716;6.444;2024-01-07T13:21:56;0.30;85.10
60473;DHT22;46318;52.716;6.444;2024-01-07T13:24:24;0.30;85.50
60473;DHT22;46318;52.716;6.444;2024-01-07T13:26:50;0.30;85.90
60473;DHT22;46318;52.716;6.444;2024-01-07T13:29:16;0.30;86.10
60473;DHT22;46318;52.716;6.444;2024-01-07T13:31:43;0.40;87.20
60473;DHT22;46318;52.716;6.444;2024-01-07T13:34:09;0.30;87.80
60473;DHT22;46318;52.716;6.444;2024-01-07T13:36:35;0.30;88.20
60473;DHT22;46318;52.716;6.444;2024-01-07T13:39:00;0.30;88.80
60473;DHT22;46318;52.716;6.444;2024-01-07T13:41:27;0.30;88.70
60473;DHT22;46318;52.716;6.444;2024-01-07T13:43:54;0.20;88.90
60473;DHT22;46318;52.716;6.444;2024-01-07T13:46:21;0.20;89.50
60473;DHT22;46318;52.716;6.444;2024-01-07T13:48:49;0.20;90.30
60473;DHT22;46318;52.716;6.444;2024-01-07T13:51:14;0.20;90.90
60473;DHT22;46318;52.716;6.444;2024-01-07T13:53:40;0.20;90.60
60473;DHT22;46318;52.716;6.444;2024-01-07T13:56:06;0.20;90.10
60473;DHT22;46318;52.716;6.444;2024-01-07T13:58:33;0.20;90.30
60473;DHT22;46318;52.716;6.444;2024-01-07T14:00:58;0.20;90.00
60473;DHT22;46318;52.716;6.444;2024-01-07T14:03:25;0.20;89.90
60473;DHT22;46318;52.716;6.444;2024-01-07T14:05:51;0.20;90.20
60473;DHT22;46318;52.716;6.444;2024-01-07T14:08:17;0.20;90.10
60473;DHT22;46318;52.716;6.444;2024-01-07T14:10:43;0.20;90.40
60473;DHT22;46318;52.716;6.444;2024-01-07T14:13:08;0.20;90.00
60473;DHT22;46318;52.716;6.444;2024-01-07T14:15:34;0.30;89.90
60473;DHT22;46318;52.716;6.444;2024-01-07T14:18:00;0.30;89.90
60473;DHT22;46318;52.716;6.444;2024-01-07T14:20:27;0.30;90.40
60473;DHT22;46318;52.716;6.444;2024-01-07T14:22:54;0.30;90.30
60473;DHT22;46318;52.716;6.444;2024-01-07T14:25:20;0.20;90.90
60473;DHT22;46318;52.716;6.444;2024-01-07T14:27:46;0.20;90.60
60473;DHT22;46318;52.716;6.444;2024-01-07T14:30:13;0.20;91.00
60473;DHT22;46318;52.716;6.444;2024-01-07T14:32:41;0.20;91.60
60473;DHT22;46318;52.716;6.444;2024-01-07T14:35:07;0.20;91.60
60473;DHT22;46318;52.716;6.444;2024-01-07T14:37:33;0.20;91.90
60473;DHT22;46318;52.716;6.444;2024-01-07T14:39:59;0.10;92.10
60473;DHT22;46318;52.716;6.444;2024-01-07T14:42:25;0.10;92.00
60473;DHT22;46318;52.716;6.444;2024-01-07T14:44:51;0.10;92.30
60473;DHT22;46318;52.716;6.444;2024-01-07T14:47:16;0.10;92.10
60473;DHT22;46318;52.716;6.444;2024-01-07T14:49:43;0.10;92.60
60473;DHT22;46318;52.716;6.444;2024-01-07T14:52:08;0.00;92.70
60473;DHT22;46318;52.716;6.444;2024-01-07T14:54:34;0.00;92.70
60473;DHT22;46318;52.716;6.444;2024-01-07T14:57:02;0.00;93.40
60473;DHT22;46318;52.716;6.444;2024-01-07T14:59:29;0.00;93.50
60473;DHT22;46318;52.716;6.444;2024-01-07T15:01:55;0.00;94.00
60473;DHT22;46318;52.716;6.444;2024-01-07T15:04:20;0.00;93.60
60473;DHT22;46318;52.716;6.444;2024-01-07T15:06:46;0.00;93.40
60473;DHT22;46318;52.716;6.444;2024-01-07T15:09:14;0.00;93.70
60473;DHT22;46318;52.716;6.444;2024-01-07T15:11:42;0.00;94.40
60473;DHT22;46318;52.716;6.444;2024-01-07T15:14:13;0.00;94.10
60473;DHT22;46318;52.716;6.444;2024-01-07T15:16:40;0.00;94.10
60473;DHT22;46318;52.716;6.444;2024-01-07T15:19:05;0.00;94.10
60473;DHT22;46318;52.716;6.444;2024-01-07T15:21:34;0.00;94.30
60473;DHT22;46318;52.716;6.444;2024-01-07T15:24:00;0.00;94.60
60473;DHT22;46318;52.716;6.444;2024-01-07T15:26:26;0.00;94.90
60473;DHT22;46318;52.716;6.444;2024-01-07T15:28:52;0.00;94.90
60473;DHT22;46318;52.716;6.444;2024-01-07T15:31:20;0.00;95.10
60473;DHT22;46318;52.716;6.444;2024-01-07T15:33:47;-0.10;94.80
60473;DHT22;46318;52.716;6.444;2024-01-07T15:36:15;-0.10;95.10
60473;DHT22;46318;52.716;6.444;2024-01-07T15:38:42;-0.10;95.30
60473;DHT22;46318;52.716;6.444;2024-01-07T15:41:08;-0.10;95.10
60473;DHT22;46318;52.716;6.444;2024-01-07T15:43:34;-0.10;95.30
60473;DHT22;46318;52.716;6.444;2024-01-07T15:46:00;-0.20;95.60
60473;DHT22;46318;52.716;6.444;2024-01-07T15:48:29;-0.20;95.30
60473;DHT22;46318;52.716;6.444;2024-01-07T15:50:57;-0.20;95.40
60473;DHT22;46318;52.716;6.444;2024-01-07T15:53:24;-0.20;95.60
60473;DHT22;46318;52.716;6.444;2024-01-07T15:55:58;-0.20;95.70